Time;durP1;ratioP1;P1;durP2;ratioP2;P2;SDS_P1;SDS_P2;PMS_P1;PMS_P2;Temp;Humidity;BMP_temperature;BMP_pressure;BME280_temperature;BME280_humidity;BME280_pressure;Samples;Min_cycle;Max_cycle;Signal;HPM_P1;HPM_P2
2023/03/07 00:01:26;;;;;;;;;;;13.50;82.50;;;;;;5035784;28;19909;-87
2023/03/07 00:03:51;;;;;;;;;;;13.50;82.50;;;;;;5035987;28;19909;-87
2023/03/07 00:06:30;;;;;;;;;;;13.40;82.50;;;;;;5019240;28;19924;-87
2023/03/07 00:08:57;;;;;;;;;;;13.50;82.60;;;;;;5018489;28;19909;-88
2023/03/07 00:11:41;;;;;;;;;;;13.40;82.60;;;;;;5020969;28;19935;-87
2023/03/07 00:14:30;;;;;;;;;;;13.40;82.70;;;;;;5018710;28;20240;-87
2023/03/07 00:16:55;;;;;;;;;;;13.40;82.50;;;;;;5035270;28;19939;-87
2023/03/07 00:19:24;;;;;;;;;;;13.40;82.50;;;;;;5035484;28;19909;-87
2023/03/07 00:21:49;;;;;;;;;;;13.40;82.50;;;;;;5019173;28;19952;-87
2023/03/07 00:24:28;;;;;;;;;;;13.40;82.40;;;;;;5018774;28;19913;-87
2023/03/07 00:26:56;;;;;;;;;;;13.40;82.30;;;;;;5034853;28;19913;-87
2023/03/07 00:29:21;;;;;;;;;;;13.40;82.20;;;;;;5018888;28;19936;-86
2023/03/07 00:32:09;;;;;;;;;;;13.40;82.30;;;;;;5059645;28;20374;-86
2023/03/07 00:34:56;;;;;;;;;;;13.40;82.30;;;;;;5099969;28;20169;-87
2023/03/07 00:37:34;;;;;;;;;;;13.40;82.20;;;;;;5118195;28;20173;-87
2023/03/07 00:40:02;;;;;;;;;;;13.40;82.10;;;;;;5121662;28;19911;-87
2023/03/07 00:42:29;;;;;;;;;;;13.40;82.10;;;;;;5121636;28;20247;-87
2023/03/07 00:45:14;;;;;;;;;;;13.40;82.00;;;;;;5104679;28;19915;-87
2023/03/07 00:47:56;;;;;;;;;;;13.40;81.90;;;;;;5103415;28;20402;-87
2023/03/07 00:50:52;;;;;;;;;;;13.40;81.90;;;;;;5103605;28;19907;-86
2023/03/07 00:53:30;;;;;;;;;;;13.40;81.90;;;;;;5103936;28;19937;-87
2023/03/07 00:56:20;;;;;;;;;;;13.40;81.90;;;;;;5104150;28;20411;-87
2023/03/07 01:01:52;;;;;;;;;;;13.40;81.90;;;;;;5100551;28;20260;-87
2023/03/07 01:04:18;;;;;;;;;;;13.40;81.90;;;;;;5104083;28;20265;-86
2023/03/07 01:06:49;;;;;;;;;;;13.40;81.80;;;;;;5104435;28;20018;-86
2023/03/07 01:09:30;;;;;;;;;;;13.40;81.90;;;;;;5104725;28;19908;-86
2023/03/07 01:12:19;;;;;;;;;;;13.40;81.90;;;;;;5103493;28;20200;-86
2023/03/07 01:14:50;;;;;;;;;;;13.40;81.80;;;;;;5120714;28;19908;-86
2023/03/07 01:17:15;;;;;;;;;;;13.40;81.80;;;;;;5103252;28;20273;-86
2023/03/07 01:26:01;;;;;;;;;;;13.40;81.80;;;;;;5037327;28;19987;-87
2023/03/07 01:28:35;;;;;;;;;;;13.40;81.70;;;;;;5020895;28;19913;-86
2023/03/07 01:31:11;;;;;;;;;;;13.40;81.70;;;;;;5036621;28;19936;-87
2023/03/07 01:33:36;;;;;;;;;;;13.40;81.70;;;;;;5036378;28;19920;-86
2023/03/07 01:36:02;;;;;;;;;;;13.40;81.70;;;;;;5036218;28;19913;-86
2023/03/07 01:38:33;;;;;;;;;;;13.40;81.70;;;;;;5037220;28;19924;-87
2023/03/07 01:44:25;;;;;;;;;;;13.40;81.60;;;;;;5016547;28;19920;-86
2023/03/07 01:46:58;;;;;;;;;;;13.40;81.70;;;;;;5015805;28;20623;-87
2023/03/07 01:49:24;;;;;;;;;;;13.40;81.70;;;;;;5032542;28;20267;-87
2023/03/07 01:52:10;;;;;;;;;;;13.40;81.70;;;;;;5036405;28;20362;-86
2023/03/07 01:55:00;;;;;;;;;;;13.40;81.70;;;;;;5036305;28;19931;-86
2023/03/07 01:58:01;;;;;;;;;;;13.40;81.70;;;;;;5037269;28;19913;-86
2023/03/07 02:01:05;;;;;;;;;;;13.40;81.70;;;;;;5017572;28;20488;-86
2023/03/07 02:06:26;;;;;;;;;;;13.40;81.70;;;;;;5077313;28;20329;-86
2023/03/07 02:12:31;;;;;;;;;;;13.40;81.70;;;;;;5077738;28;19919;-87
2023/03/07 02:15:00;;;;;;;;;;;13.40;81.70;;;;;;5001377;28;19936;-87
2023/03/07 02:23:30;;;;;;;;;;;13.40;81.70;;;;;;4978474;28;19917;-87
2023/03/07 02:26:12;;;;;;;;;;;13.40;81.70;;;;;;4979191;28;19914;-87
2023/03/07 02:28:41;;;;;;;;;;;13.40;81.70;;;;;;4994964;28;19910;-87
2023/03/07 02:31:10;;;;;;;;;;;13.40;81.70;;;;;;4990163;28;19905;-87
2023/03/07 02:33:38;;;;;;;;;;;13.40;81.70;;;;;;5006495;28;20016;-86
2023/03/07 02:36:26;;;;;;;;;;;13.40;81.70;;;;;;5001491;28;19910;-87
2023/03/07 02:39:07;;;;;;;;;;;13.40;81.70;;;;;;5001470;28;19922;-87
2023/03/07 02:41:55;;;;;;;;;;;13.40;81.60;;;;;;5008035;28;19909;-87
2023/03/07 02:44:26;;;;;;;;;;;13.40;81.60;;;;;;5041225;28;19920;-87
2023/03/07 02:47:45;;;;;;;;;;;13.40;81.70;;;;;;5040267;28;19913;-87
2023/03/07 02:50:19;;;;;;;;;;;13.40;81.70;;;;;;5115468;28;19908;-87
2023/03/07 02:52:48;;;;;;;;;;;13.40;81.60;;;;;;5100760;28;19912;-87
2023/03/07 02:55:15;;;;;;;;;;;13.40;81.60;;;;;;5117977;28;20185;-87
2023/03/07 02:57:49;;;;;;;;;;;13.40;81.70;;;;;;5101018;28;20047;-87
2023/03/07 03:00:16;;;;;;;;;;;13.40;81.70;;;;;;5117651;28;20018;-87
2023/03/07 03:02:41;;;;;;;;;;;13.40;81.70;;;;;;5116400;28;19908;-87
2023/03/07 03:05:07;;;;;;;;;;;13.40;81.70;;;;;;5117215;28;20382;-87
2023/03/07 03:07:36;;;;;;;;;;;13.40;81.70;;;;;;5118327;28;19908;-87
2023/03/07 03:10:20;;;;;;;;;;;13.40;81.70;;;;;;5100949;28;20162;-86
2023/03/07 03:12:56;;;;;;;;;;;13.40;81.70;;;;;;5100501;28;19998;-86
2023/03/07 03:15:40;;;;;;;;;;;13.40;81.70;;;;;;5100951;28;19908;-86
2023/03/07 03:18:05;;;;;;;;;;;13.40;81.70;;;;;;5118538;28;19918;-86
2023/03/07 03:23:38;;;;;;;;;;;13.40;81.70;;;;;;5118295;28;19918;-87
2023/03/07 03:26:22;;;;;;;;;;;13.40;81.70;;;;;;5101154;28;19963;-86
2023/03/07 03:31:51;;;;;;;;;;;13.40;81.80;;;;;;5119138;28;19919;-87
2023/03/07 03:37:02;;;;;;;;;;;13.40;81.70;;;;;;5075547;28;20217;-87
2023/03/07 03:42:37;;;;;;;;;;;13.40;81.70;;;;;;5067962;28;19919;-87
2023/03/07 03:45:25;;;;;;;;;;;13.40;81.70;;;;;;5075842;28;19909;-87
2023/03/07 03:48:27;;;;;;;;;;;13.40;81.70;;;;;;5075697;28;19916;-87
2023/03/07 03:51:15;;;;;;;;;;;13.40;81.70;;;;;;5027518;28;19908;-87
2023/03/07 03:53:40;;;;;;;;;;;13.40;81.70;;;;;;5075548;28;20260;-87
2023/03/07 03:56:13;;;;;;;;;;;13.40;81.70;;;;;;5059823;28;20290;-87
2023/03/07 04:01:44;;;;;;;;;;;13.40;81.70;;;;;;5105027;28;19961;-87
2023/03/07 04:04:34;;;;;;;;;;;13.40;81.60;;;;;;5118849;28;20006;-87
2023/03/07 04:07:27;;;;;;;;;;;13.40;81.70;;;;;;5117589;28;19984;-87
2023/03/07 04:10:03;;;;;;;;;;;13.40;81.70;;;;;;5100234;28;19908;-87
2023/03/07 04:12:35;;;;;;;;;;;13.40;81.60;;;;;;5099742;28;19977;-87
2023/03/07 04:17:57;;;;;;;;;;;13.40;81.60;;;;;;5079424;28;19914;-87
2023/03/07 04:20:28;;;;;;;;;;;13.40;81.70;;;;;;5077238;28;19913;-87
2023/03/07 04:23:09;;;;;;;;;;;13.40;81.60;;;;;;5080096;28;19909;-87
2023/03/07 04:25:38;;;;;;;;;;;13.40;81.60;;;;;;5062971;28;19916;-87
2023/03/07 04:28:22;;;;;;;;;;;13.40;81.70;;;;;;5062327;28;20312;-87
2023/03/07 04:30:55;;;;;;;;;;;13.40;81.70;;;;;;5078644;28;20435;-87
2023/03/07 04:33:39;;;;;;;;;;;13.40;81.70;;;;;;5058497;28;19913;-87
2023/03/07 04:36:08;;;;;;;;;;;13.40;81.70;;;;;;5058777;28;20340;-86
2023/03/07 04:38:43;;;;;;;;;;;13.40;81.70;;;;;;5042141;28;19913;-86
2023/03/07 04:41:27;;;;;;;;;;;13.40;81.70;;;;;;5046082;28;20491;-86
2023/03/07 04:44:01;;;;;;;;;;;13.40;81.80;;;;;;5057690;28;20214;-87
2023/03/07 04:46:27;;;;;;;;;;;13.40;81.80;;;;;;5041682;28;19917;-86
2023/03/07 04:49:01;;;;;;;;;;;13.40;81.80;;;;;;5057665;28;19939;-87
2023/03/07 04:51:29;;;;;;;;;;;13.40;81.70;;;;;;5067812;28;19913;-86
2023/03/07 04:53:57;;;;;;;;;;;13.40;81.70;;;;;;5061054;28;20042;-87
2023/03/07 04:56:38;;;;;;;;;;;13.40;81.70;;;;;;5077794;28;19986;-87
2023/03/07 04:59:06;;;;;;;;;;;13.40;81.70;;;;;;5077730;28;20513;-87
2023/03/07 05:01:50;;;;;;;;;;;13.40;81.70;;;;;;5076909;28;19908;-86
2023/03/07 05:04:15;;;;;;;;;;;13.40;81.70;;;;;;5081030;28;20421;-86
2023/03/07 05:06:41;;;;;;;;;;;13.40;81.70;;;;;;5082046;28;19912;-87
2023/03/07 05:09:15;;;;;;;;;;;13.40;81.70;;;;;;5082211;28;19908;-87
2023/03/07 05:14:55;;;;;;;;;;;13.40;81.60;;;;;;5094764;28;19938;-86
2023/03/07 05:17:21;;;;;;;;;;;13.40;81.60;;;;;;5081848;28;19912;-87
2023/03/07 05:19:49;;;;;;;;;;;13.40;81.50;;;;;;5081298;28;19908;-87
2023/03/07 05:22:14;;;;;;;;;;;13.40;81.40;;;;;;5099415;28;19931;-87
2023/03/07 05:25:06;;;;;;;;;;;13.40;81.40;;;;;;5079082;28;20235;-87
2023/03/07 05:27:38;;;;;;;;;;;13.40;81.40;;;;;;5073006;28;19918;-86
2023/03/07 05:30:43;;;;;;;;;;;13.40;81.40;;;;;;5079936;28;19969;-86
2023/03/07 05:33:09;;;;;;;;;;;13.40;81.50;;;;;;5034315;28;20389;-86
2023/03/07 05:35:38;;;;;;;;;;;13.40;81.50;;;;;;5020378;28;19917;-87
2023/03/07 05:38:06;;;;;;;;;;;13.40;81.50;;;;;;5018561;28;19932;-86
2023/03/07 05:40:53;;;;;;;;;;;13.30;81.40;;;;;;5035646;28;19909;-86
2023/03/07 05:43:22;;;;;;;;;;;13.40;81.50;;;;;;5033877;28;20385;-86
2023/03/07 05:45:50;;;;;;;;;;;13.30;81.60;;;;;;5079917;28;19928;-86
2023/03/07 05:48:19;;;;;;;;;;;13.30;81.60;;;;;;5081352;28;19915;-86
2023/03/07 05:50:48;;;;;;;;;;;13.30;81.80;;;;;;5080698;28;20232;-87
2023/03/07 05:53:16;;;;;;;;;;;13.40;81.80;;;;;;5080300;28;19923;-86
2023/03/07 05:55:57;;;;;;;;;;;13.30;81.70;;;;;;5097645;28;19908;-86
2023/03/07 05:58:23;;;;;;;;;;;13.40;81.80;;;;;;5081184;28;19908;-86
2023/03/07 06:00:51;;;;;;;;;;;13.40;81.90;;;;;;5081516;28;20230;-87
2023/03/07 06:03:32;;;;;;;;;;;13.40;81.80;;;;;;5080653;28;19908;-87
2023/03/07 06:06:02;;;;;;;;;;;13.30;81.90;;;;;;5080547;28;20010;-86
2023/03/07 06:08:42;;;;;;;;;;;13.40;82.10;;;;;;5080950;28;19908;-86
2023/03/07 06:11:11;;;;;;;;;;;13.30;81.90;;;;;;5078944;28;20011;-86
2023/03/07 06:16:39;;;;;;;;;;;13.40;82.10;;;;;;5074470;28;19963;-86
2023/03/07 06:19:10;;;;;;;;;;;13.40;82.10;;;;;;5074426;28;19916;-86
2023/03/07 06:21:44;;;;;;;;;;;13.40;82.70;;;;;;5072709;28;19909;-86
2023/03/07 06:24:13;;;;;;;;;;;13.30;82.00;;;;;;5072121;28;19912;-86
2023/03/07 06:26:38;;;;;;;;;;;13.40;82.10;;;;;;5071173;28;19923;-86
2023/03/07 06:29:04;;;;;;;;;;;13.40;82.30;;;;;;5071707;28;19909;-86
2023/03/07 06:31:30;;;;;;;;;;;13.40;82.20;;;;;;5053046;28;20038;-86
2023/03/07 06:33:55;;;;;;;;;;;13.40;82.30;;;;;;5052375;28;20306;-86
2023/03/07 06:36:23;;;;;;;;;;;13.40;82.80;;;;;;5051164;28;19939;-87
2023/03/07 06:38:49;;;;;;;;;;;13.40;82.60;;;;;;5050339;28;19909;-86
2023/03/07 06:41:17;;;;;;;;;;;13.40;83.60;;;;;;5051970;28;19913;-87
2023/03/07 06:43:43;;;;;;;;;;;13.40;84.40;;;;;;5053013;28;20002;-87
2023/03/07 06:46:09;;;;;;;;;;;13.40;84.90;;;;;;5051597;28;19970;-86
2023/03/07 06:48:34;;;;;;;;;;;13.50;85.30;;;;;;5050060;28;20270;-86
2023/03/07 06:51:11;;;;;;;;;;;13.50;85.80;;;;;;5050653;28;19909;-86
2023/03/07 06:53:46;;;;;;;;;;;13.50;86.30;;;;;;5049998;28;20298;-87
2023/03/07 06:56:11;;;;;;;;;;;13.50;86.30;;;;;;5039435;28;20031;-86
2023/03/07 06:58:37;;;;;;;;;;;13.50;86.30;;;;;;5050574;28;20068;-86
2023/03/07 07:01:09;;;;;;;;;;;13.50;86.40;;;;;;5049824;28;20031;-86
2023/03/07 07:03:44;;;;;;;;;;;13.50;86.30;;;;;;5074575;28;19908;-86
2023/03/07 07:06:10;;;;;;;;;;;13.50;86.40;;;;;;5076179;28;19912;-87
2023/03/07 07:08:36;;;;;;;;;;;13.50;86.00;;;;;;5076023;28;19908;-87
2023/03/07 07:11:01;;;;;;;;;;;13.50;85.70;;;;;;5094688;28;20297;-86
2023/03/07 07:13:27;;;;;;;;;;;13.50;85.60;;;;;;5077294;28;19908;-87
2023/03/07 07:15:52;;;;;;;;;;;13.50;85.40;;;;;;5075793;28;19952;-87
2023/03/07 07:18:18;;;;;;;;;;;13.50;85.00;;;;;;5074543;28;19931;-86
2023/03/07 07:21:08;;;;;;;;;;;13.50;85.00;;;;;;5075739;28;19909;-86
2023/03/07 07:23:40;;;;;;;;;;;13.50;84.90;;;;;;5075050;28;19916;-87
2023/03/07 07:26:06;;;;;;;;;;;13.50;84.90;;;;;;5075619;28;19995;-86
2023/03/07 07:28:31;;;;;;;;;;;13.50;84.80;;;;;;5074423;28;20441;-87
2023/03/07 07:30:58;;;;;;;;;;;13.50;84.80;;;;;;5075560;28;19908;-87
2023/03/07 07:33:23;;;;;;;;;;;13.50;84.70;;;;;;5076717;28;20150;-87
2023/03/07 07:35:49;;;;;;;;;;;13.60;84.70;;;;;;5076270;28;19908;-87
2023/03/07 07:38:23;;;;;;;;;;;13.60;84.60;;;;;;5093235;28;19908;-87
2023/03/07 07:40:57;;;;;;;;;;;13.60;84.60;;;;;;5075563;28;19908;-87
2023/03/07 07:43:23;;;;;;;;;;;13.60;84.60;;;;;;5077393;28;19916;-87
2023/03/07 07:45:48;;;;;;;;;;;13.60;84.60;;;;;;5076129;28;20503;-87
2023/03/07 07:48:36;;;;;;;;;;;13.60;84.60;;;;;;5094741;28;19961;-86
2023/03/07 07:51:11;;;;;;;;;;;13.60;84.40;;;;;;5075704;28;19973;-87
2023/03/07 07:53:45;;;;;;;;;;;13.60;84.40;;;;;;5075740;28;20417;-87
2023/03/07 07:56:20;;;;;;;;;;;13.60;84.30;;;;;;5075152;28;19908;-87
2023/03/07 07:58:49;;;;;;;;;;;13.60;84.30;;;;;;5094170;28;19919;-87
2023/03/07 08:01:15;;;;;;;;;;;13.60;84.40;;;;;;5075308;28;19908;-87
2023/03/07 08:03:41;;;;;;;;;;;13.60;84.20;;;;;;5074242;28;19908;-87
2023/03/07 08:06:10;;;;;;;;;;;13.60;84.20;;;;;;5075375;28;19916;-87
2023/03/07 08:08:36;;;;;;;;;;;13.60;84.20;;;;;;5076273;28;19919;-87
2023/03/07 08:11:01;;;;;;;;;;;13.60;84.20;;;;;;5075377;28;19912;-86
2023/03/07 08:13:30;;;;;;;;;;;13.60;84.20;;;;;;5093086;28;19915;-87
2023/03/07 08:15:55;;;;;;;;;;;13.60;84.00;;;;;;5075764;28;19998;-86
2023/03/07 08:18:24;;;;;;;;;;;13.60;84.00;;;;;;5075843;28;20019;-86
2023/03/07 08:20:53;;;;;;;;;;;13.60;84.00;;;;;;5076453;28;19981;-86
2023/03/07 08:23:23;;;;;;;;;;;13.60;84.10;;;;;;5075190;28;20478;-86
2023/03/07 08:25:50;;;;;;;;;;;13.60;84.00;;;;;;5093580;28;19913;-86
2023/03/07 08:28:15;;;;;;;;;;;13.60;83.90;;;;;;5077039;28;20218;-86
2023/03/07 08:30:41;;;;;;;;;;;13.60;83.90;;;;;;5077710;28;20486;-86
2023/03/07 08:33:16;;;;;;;;;;;13.60;83.90;;;;;;5078025;28;19934;-86
2023/03/07 08:35:41;;;;;;;;;;;13.60;84.00;;;;;;5093460;28;19908;-86
2023/03/07 08:38:10;;;;;;;;;;;13.60;83.90;;;;;;5076867;28;20014;-87
2023/03/07 08:40:40;;;;;;;;;;;13.60;83.90;;;;;;5076283;28;19926;-87
2023/03/07 08:43:05;;;;;;;;;;;13.60;83.80;;;;;;5094292;28;19916;-87
2023/03/07 08:45:31;;;;;;;;;;;13.60;83.80;;;;;;5075960;28;19920;-87
2023/03/07 08:47:56;;;;;;;;;;;13.60;83.70;;;;;;5093849;28;19916;-87
2023/03/07 08:53:15;;;;;;;;;;;13.60;83.70;;;;;;5092101;28;19968;-87
2023/03/07 08:55:46;;;;;;;;;;;13.60;83.70;;;;;;5075588;28;19919;-86
2023/03/07 08:58:19;;;;;;;;;;;13.60;84.30;;;;;;5093030;28;20506;-87
2023/03/07 09:00:45;;;;;;;;;;;13.60;83.60;;;;;;5079224;28;19934;-86
2023/03/07 09:03:13;;;;;;;;;;;13.60;83.60;;;;;;5078287;28;19911;-86
2023/03/07 09:05:39;;;;;;;;;;;13.60;83.60;;;;;;5077246;28;19920;-87
2023/03/07 09:08:30;;;;;;;;;;;13.60;83.70;;;;;;5078055;28;19915;-86
2023/03/07 09:11:05;;;;;;;;;;;13.70;83.70;;;;;;5077755;28;20007;-87
2023/03/07 09:13:31;;;;;;;;;;;13.70;83.70;;;;;;5077924;28;19931;-87
2023/03/07 09:15:56;;;;;;;;;;;13.60;83.70;;;;;;5078614;28;20258;-87
2023/03/07 09:18:25;;;;;;;;;;;13.60;84.30;;;;;;5078919;28;19908;-87
2023/03/07 09:20:53;;;;;;;;;;;13.60;83.70;;;;;;5096437;28;20236;-87
2023/03/07 09:23:24;;;;;;;;;;;13.60;83.70;;;;;;5078833;28;19915;-87
2023/03/07 09:25:50;;;;;;;;;;;13.70;83.70;;;;;;5079138;28;19938;-86
2023/03/07 09:28:19;;;;;;;;;;;13.70;83.60;;;;;;5078134;28;19912;-87
2023/03/07 09:30:44;;;;;;;;;;;13.60;83.60;;;;;;5078381;28;20007;-86
2023/03/07 09:33:13;;;;;;;;;;;13.70;83.70;;;;;;5076548;28;20010;-87
2023/03/07 09:35:41;;;;;;;;;;;13.70;83.60;;;;;;5077932;28;20010;-87
2023/03/07 09:38:26;;;;;;;;;;;13.70;83.60;;;;;;5077417;28;20274;-87
2023/03/07 09:40:51;;;;;;;;;;;13.70;83.70;;;;;;5095422;28;20018;-87
2023/03/07 09:43:25;;;;;;;;;;;13.70;83.70;;;;;;5076554;28;20014;-88
2023/03/07 09:46:18;;;;;;;;;;;13.60;83.60;;;;;;5077368;28;19922;-87
2023/03/07 09:49:02;;;;;;;;;;;13.70;84.20;;;;;;5078347;28;19935;-88
2023/03/07 09:51:39;;;;;;;;;;;13.70;83.50;;;;;;5077640;28;19908;-88
2023/03/07 09:54:19;;;;;;;;;;;13.60;83.50;;;;;;5077920;28;19935;-88
2023/03/07 09:56:54;;;;;;;;;;;13.70;83.50;;;;;;5076579;28;19908;-86
2023/03/07 09:59:26;;;;;;;;;;;13.70;83.40;;;;;;5076618;28;20190;-87
2023/03/07 10:02:16;;;;;;;;;;;13.70;83.40;;;;;;5079020;28;20099;-87
2023/03/07 10:04:42;;;;;;;;;;;13.70;83.90;;;;;;5069526;28;20201;-87
2023/03/07 10:07:08;;;;;;;;;;;13.70;83.20;;;;;;5080377;28;20270;-87
2023/03/07 10:09:37;;;;;;;;;;;13.70;83.20;;;;;;5088506;28;19916;-87
2023/03/07 10:12:29;;;;;;;;;;;13.70;83.10;;;;;;5078460;28;19965;-87
2023/03/07 10:15:12;;;;;;;;;;;13.70;83.80;;;;;;5056391;28;19916;-87
2023/03/07 10:17:38;;;;;;;;;;;13.80;83.20;;;;;;5097192;28;19908;-87
2023/03/07 10:20:18;;;;;;;;;;;13.70;83.10;;;;;;5096586;28;19931;-87
2023/03/07 10:22:56;;;;;;;;;;;13.80;83.20;;;;;;5076994;28;20284;-87
2023/03/07 10:25:36;;;;;;;;;;;13.70;83.20;;;;;;5077742;28;19912;-87
2023/03/07 10:28:17;;;;;;;;;;;13.80;83.50;;;;;;5092968;28;20270;-87
2023/03/07 10:30:45;;;;;;;;;;;13.80;83.70;;;;;;5075933;28;20018;-87
2023/03/07 10:33:18;;;;;;;;;;;13.80;83.90;;;;;;5092904;28;20003;-87
2023/03/07 10:36:00;;;;;;;;;;;13.80;83.70;;;;;;5094032;28;20045;-87
2023/03/07 10:38:44;;;;;;;;;;;13.80;83.60;;;;;;5076845;28;20469;-87
2023/03/07 10:41:13;;;;;;;;;;;13.80;83.60;;;;;;5094657;28;19919;-87
2023/03/07 10:43:46;;;;;;;;;;;13.80;83.30;;;;;;5077318;28;19966;-87
2023/03/07 10:46:16;;;;;;;;;;;13.90;83.20;;;;;;5075903;28;19924;-87
2023/03/07 10:48:45;;;;;;;;;;;13.80;83.10;;;;;;5077206;28;20178;-87
2023/03/07 10:51:29;;;;;;;;;;;13.80;82.90;;;;;;5076281;28;19916;-87
2023/03/07 10:53:55;;;;;;;;;;;13.90;82.90;;;;;;5075596;28;19908;-87
2023/03/07 10:56:20;;;;;;;;;;;13.90;82.70;;;;;;5076838;28;19932;-87
2023/03/07 10:59:08;;;;;;;;;;;13.90;82.50;;;;;;5077578;28;19973;-87
2023/03/07 11:01:34;;;;;;;;;;;13.90;82.40;;;;;;5095180;28;19908;-87
2023/03/07 11:04:21;;;;;;;;;;;13.90;82.20;;;;;;5078420;28;19908;-87
2023/03/07 11:06:54;;;;;;;;;;;13.90;82.10;;;;;;5078416;28;19955;-87
2023/03/07 11:09:33;;;;;;;;;;;13.90;82.10;;;;;;5096248;28;19908;-87
2023/03/07 11:12:15;;;;;;;;;;;13.90;82.10;;;;;;5095363;28;19912;-87
2023/03/07 11:14:46;;;;;;;;;;;13.90;82.30;;;;;;5077217;28;20331;-86
2023/03/07 11:17:32;;;;;;;;;;;13.90;82.30;;;;;;5094960;28;20433;-86
2023/03/07 11:19:57;;;;;;;;;;;13.90;82.40;;;;;;5096028;28;19912;-87
2023/03/07 11:22:35;;;;;;;;;;;13.90;82.20;;;;;;5076604;28;19908;-86
2023/03/07 11:25:07;;;;;;;;;;;14.00;82.20;;;;;;5092003;28;19919;-87
2023/03/07 11:27:59;;;;;;;;;;;14.00;82.20;;;;;;5075797;28;19934;-87
2023/03/07 11:30:45;;;;;;;;;;;13.90;82.20;;;;;;5094395;28;19908;-86
2023/03/07 11:33:28;;;;;;;;;;;13.90;82.20;;;;;;5076129;28;19908;-86
2023/03/07 11:36:13;;;;;;;;;;;14.00;82.30;;;;;;5076505;28;19908;-87
2023/03/07 11:38:57;;;;;;;;;;;13.90;82.20;;;;;;5076073;28;19919;-86
2023/03/07 11:41:29;;;;;;;;;;;13.90;82.20;;;;;;5095186;28;19993;-87
2023/03/07 11:44:13;;;;;;;;;;;13.90;82.40;;;;;;5076398;28;19943;-87
2023/03/07 11:47:10;;;;;;;;;;;14.00;82.60;;;;;;5076161;28;19916;-87
2023/03/07 11:49:50;;;;;;;;;;;13.90;82.70;;;;;;5091058;28;19919;-87
2023/03/07 11:52:35;;;;;;;;;;;13.90;82.60;;;;;;5074590;28;20221;-87
2023/03/07 11:55:28;;;;;;;;;;;14.00;82.90;;;;;;5075712;28;19985;-86
2023/03/07 11:58:00;;;;;;;;;;;14.00;83.10;;;;;;5076290;28;19969;-86
2023/03/07 12:03:52;;;;;;;;;;;14.00;84.00;;;;;;5019719;28;19996;-86
2023/03/07 12:06:32;;;;;;;;;;;14.00;84.00;;;;;;5013788;28;20321;-86
2023/03/07 12:09:16;;;;;;;;;;;14.00;84.00;;;;;;5012504;28;20325;-86
2023/03/07 12:11:56;;;;;;;;;;;14.00;84.20;;;;;;5038395;28;20291;-86
2023/03/07 12:14:31;;;;;;;;;;;14.00;84.30;;;;;;5074870;28;19922;-86
2023/03/07 12:17:14;;;;;;;;;;;14.00;84.30;;;;;;5091219;28;19915;-86
2023/03/07 12:20:02;;;;;;;;;;;14.10;84.60;;;;;;5075966;28;19908;-86
2023/03/07 12:23:18;;;;;;;;;;;14.00;84.80;;;;;;5074152;28;19916;-87
2023/03/07 12:25:48;;;;;;;;;;;14.10;85.10;;;;;;5049165;28;19920;-86
2023/03/07 12:28:17;;;;;;;;;;;14.10;85.60;;;;;;5092571;28;19909;-87
2023/03/07 12:31:08;;;;;;;;;;;14.10;85.90;;;;;;5091531;28;20528;-87
2023/03/07 12:33:53;;;;;;;;;;;14.10;85.80;;;;;;5045970;28;19961;-87
2023/03/07 12:36:31;;;;;;;;;;;14.10;85.80;;;;;;5077054;28;20387;-86
2023/03/07 12:39:02;;;;;;;;;;;14.10;85.60;;;;;;5093780;28;19909;-87
2023/03/07 12:44:37;;;;;;;;;;;14.10;85.50;;;;;;5094436;28;19919;-87
2023/03/07 12:47:13;;;;;;;;;;;14.10;85.70;;;;;;5077159;28;19919;-87
2023/03/07 12:49:51;;;;;;;;;;;14.10;85.90;;;;;;5078240;28;20011;-86
2023/03/07 12:52:39;;;;;;;;;;;14.10;86.00;;;;;;5086688;28;19918;-87
2023/03/07 12:55:17;;;;;;;;;;;14.10;86.50;;;;;;5097106;28;19908;-87
2023/03/07 12:57:49;;;;;;;;;;;14.10;86.20;;;;;;5095706;28;19972;-87
2023/03/07 13:00:18;;;;;;;;;;;14.10;86.20;;;;;;5096914;28;20603;-87
2023/03/07 13:03:01;;;;;;;;;;;14.10;86.10;;;;;;5096315;28;19954;-87
2023/03/07 13:05:55;;;;;;;;;;;14.10;86.00;;;;;;5096247;28;19926;-87
2023/03/07 13:08:24;;;;;;;;;;;14.10;86.00;;;;;;5094906;28;20278;-87
2023/03/07 13:10:56;;;;;;;;;;;14.10;86.00;;;;;;5094930;28;19908;-87
2023/03/07 13:13:43;;;;;;;;;;;14.10;85.90;;;;;;5096020;28;20016;-87
2023/03/07 13:16:39;;;;;;;;;;;14.10;86.10;;;;;;5076208;28;19919;-87
2023/03/07 13:19:23;;;;;;;;;;;14.10;86.40;;;;;;5095700;28;19919;-87
2023/03/07 13:21:49;;;;;;;;;;;14.10;86.30;;;;;;5076351;28;20213;-87
2023/03/07 13:24:33;;;;;;;;;;;14.20;86.30;;;;;;5077746;28;19908;-87
2023/03/07 13:27:06;;;;;;;;;;;14.20;86.40;;;;;;5077977;28;20419;-86
2023/03/07 13:29:50;;;;;;;;;;;14.20;86.20;;;;;;5078621;28;19912;-86
2023/03/07 13:32:35;;;;;;;;;;;14.20;86.10;;;;;;5078495;28;20024;-86
2023/03/07 13:35:12;;;;;;;;;;;14.20;86.10;;;;;;5076963;28;20008;-86
2023/03/07 13:37:58;;;;;;;;;;;14.20;86.00;;;;;;5077010;28;19908;-87
2023/03/07 13:40:42;;;;;;;;;;;14.20;86.10;;;;;;5076088;28;19965;-86
2023/03/07 13:43:23;;;;;;;;;;;14.20;85.90;;;;;;5077681;28;19908;-86
2023/03/07 13:45:56;;;;;;;;;;;14.20;85.80;;;;;;5074970;28;20162;-86
2023/03/07 13:48:30;;;;;;;;;;;14.20;85.80;;;;;;5075156;28;19908;-86
2023/03/07 13:50:59;;;;;;;;;;;14.20;85.80;;;;;;5075412;28;20197;-86
2023/03/07 13:53:28;;;;;;;;;;;14.20;86.00;;;;;;5077244;28;19977;-86
2023/03/07 13:56:13;;;;;;;;;;;14.20;85.90;;;;;;5075673;28;20026;-86
2023/03/07 13:58:57;;;;;;;;;;;14.20;85.90;;;;;;5092755;28;19961;-86
2023/03/07 14:01:29;;;;;;;;;;;14.20;85.80;;;;;;5075886;28;19920;-86
2023/03/07 14:04:17;;;;;;;;;;;14.20;85.90;;;;;;5073718;28;19908;-86
2023/03/07 14:06:47;;;;;;;;;;;14.20;85.80;;;;;;5074670;28;19994;-86
2023/03/07 14:09:24;;;;;;;;;;;14.20;85.80;;;;;;5074016;28;19915;-86
2023/03/07 14:11:58;;;;;;;;;;;14.20;86.10;;;;;;5072895;28;19908;-86
2023/03/07 14:14:32;;;;;;;;;;;14.20;86.00;;;;;;5090416;28;19908;-86
2023/03/07 14:17:07;;;;;;;;;;;14.20;86.10;;;;;;5071276;28;19908;-86
2023/03/07 14:19:57;;;;;;;;;;;14.20;86.10;;;;;;5073969;28;19973;-86
2023/03/07 14:22:35;;;;;;;;;;;14.20;86.30;;;;;;5112170;28;19908;-86
2023/03/07 14:25:10;;;;;;;;;;;14.20;86.30;;;;;;5103162;28;19904;-86
2023/03/07 14:27:54;;;;;;;;;;;14.20;86.40;;;;;;5094148;28;19915;-86
2023/03/07 14:30:29;;;;;;;;;;;14.20;86.40;;;;;;5089930;28;19908;-86
2023/03/07 14:33:00;;;;;;;;;;;14.20;86.60;;;;;;5091019;28;19923;-86
2023/03/07 14:35:33;;;;;;;;;;;14.20;86.70;;;;;;5092449;28;19923;-87
2023/03/07 14:38:31;;;;;;;;;;;14.20;86.80;;;;;;5111828;28;19927;-86
2023/03/07 14:41:15;;;;;;;;;;;14.20;86.80;;;;;;4996521;28;19914;-86
2023/03/07 14:44:13;;;;;;;;;;;14.20;87.10;;;;;;5028293;28;19912;-86
2023/03/07 14:47:00;;;;;;;;;;;14.20;87.00;;;;;;5023172;28;19935;-86
2023/03/07 14:49:32;;;;;;;;;;;14.20;87.20;;;;;;5104134;28;19908;-86
2023/03/07 14:51:57;;;;;;;;;;;14.10;87.20;;;;;;5096358;28;19912;-86
2023/03/07 14:54:44;;;;;;;;;;;14.20;87.40;;;;;;5096531;28;19915;-86
2023/03/07 14:57:20;;;;;;;;;;;14.10;87.30;;;;;;5096089;28;19987;-86
2023/03/07 15:00:13;;;;;;;;;;;14.20;87.30;;;;;;5112402;28;19916;-86
2023/03/07 15:02:55;;;;;;;;;;;14.10;87.50;;;;;;5112614;28;20002;-86
2023/03/07 15:05:22;;;;;;;;;;;14.20;87.50;;;;;;5092885;28;19919;-86
2023/03/07 15:08:09;;;;;;;;;;;14.20;87.50;;;;;;5111523;28;19916;-86
2023/03/07 15:10:39;;;;;;;;;;;14.10;87.60;;;;;;5093808;28;19918;-85
2023/03/07 15:13:25;;;;;;;;;;;14.10;87.60;;;;;;5094311;28;20002;-86
2023/03/07 15:15:53;;;;;;;;;;;14.10;87.60;;;;;;5090697;28;20010;-86
2023/03/07 15:18:19;;;;;;;;;;;14.20;88.00;;;;;;5083521;28;19922;-86
2023/03/07 15:20:49;;;;;;;;;;;14.20;88.20;;;;;;5083195;28;20002;-85
2023/03/07 15:23:26;;;;;;;;;;;14.10;88.20;;;;;;5082889;28;20227;-86
2023/03/07 15:25:54;;;;;;;;;;;14.10;88.10;;;;;;5085372;28;20010;-86
2023/03/07 15:28:25;;;;;;;;;;;14.10;88.30;;;;;;5086701;28;19918;-86
2023/03/07 15:30:54;;;;;;;;;;;14.10;88.20;;;;;;5104300;28;20132;-86
2023/03/07 15:33:20;;;;;;;;;;;14.10;88.20;;;;;;5084808;28;19915;-86
2023/03/07 15:36:06;;;;;;;;;;;14.10;88.30;;;;;;5105417;28;19908;-86
2023/03/07 15:38:48;;;;;;;;;;;14.10;88.20;;;;;;5077938;28;19915;-86
2023/03/07 15:41:38;;;;;;;;;;;14.10;88.30;;;;;;5088016;28;19933;-86
2023/03/07 15:44:35;;;;;;;;;;;14.10;88.50;;;;;;5086211;28;19915;-86
2023/03/07 15:47:16;;;;;;;;;;;14.10;88.50;;;;;;5024420;28;19921;-87
2023/03/07 15:49:43;;;;;;;;;;;14.10;88.50;;;;;;5022687;28;19974;-87
2023/03/07 15:52:19;;;;;;;;;;;14.10;88.80;;;;;;5006223;28;19963;-86
2023/03/07 15:54:48;;;;;;;;;;;14.10;88.90;;;;;;5022744;28;20168;-87
2023/03/07 15:57:16;;;;;;;;;;;14.10;88.90;;;;;;5033701;28;20122;-86
2023/03/07 16:00:14;;;;;;;;;;;14.10;89.00;;;;;;5085396;28;20242;-86